createdAt,value
2023-05-15T00:03:45.564Z,100724.34
2023-05-15T00:08:49.448Z,100719.09
2023-05-15T00:13:51.552Z,100717.41
2023-05-15T00:18:53.814Z,100714.81
2023-05-15T00:23:57.501Z,100708.63
2023-05-15T00:28:59.617Z,100714.78
2023-05-15T00:34:02.019Z,100698.97
2023-05-15T00:39:05.377Z,100698.16
2023-05-15T00:44:09.949Z,100682.19
2023-05-15T00:49:12.722Z,100669.88
2023-05-15T00:54:16.021Z,100668.22
2023-05-15T00:59:19.775Z,100668.28
2023-05-15T01:04:22.497Z,100669.19
2023-05-15T01:09:28.721Z,100663.91
2023-05-15T01:14:30.787Z,100648.06
2023-05-15T01:19:33.046Z,100648.06
2023-05-15T01:24:53.024Z,100641.06
2023-05-15T01:30:02.791Z,100637.50
2023-05-15T01:35:12.107Z,100656.03
2023-05-15T01:40:16.827Z,100648.09
2023-05-15T01:45:23.585Z,100633.09
2023-05-15T01:50:28.077Z,100626.97
2023-05-15T01:55:31.367Z,100628.75
2023-05-15T02:00:36.200Z,100626.09
2023-05-15T02:05:39.204Z,100620.81
2023-05-15T02:10:42.282Z,100613.81
2023-05-15T02:15:45.912Z,100616.44
2023-05-15T02:20:48.026Z,100610.28
2023-05-15T02:26:03.720Z,100613.78
2023-05-15T02:31:18.080Z,100614.66
2023-05-15T02:36:28.236Z,100606.75
2023-05-15T02:41:32.458Z,100593.53
2023-05-15T02:46:37.534Z,100591.78
2023-05-15T02:51:39.736Z,100575.97
2023-05-15T02:56:41.866Z,100581.25
2023-05-15T03:01:45.077Z,100575.09
2023-05-15T03:06:47.260Z,100566.28
2023-05-15T03:11:49.351Z,100561.91
2023-05-15T03:16:52.838Z,100559.25
2023-05-15T03:21:55.006Z,100568.03
2023-05-15T03:26:57.149Z,100550.44
2023-05-15T03:32:01.076Z,100566.25
2023-05-15T03:37:03.792Z,100574.16
2023-05-15T03:42:06.478Z,100566.25
2023-05-15T03:47:09.809Z,100556.63
2023-05-15T03:52:12.153Z,100555.75
2023-05-15T03:57:13.974Z,100546.09
2023-05-15T04:02:17.472Z,100546.06
2023-05-15T04:07:19.634Z,100538.16
2023-05-15T04:12:21.773Z,100538.97
2023-05-15T04:17:25.636Z,100536.34
2023-05-15T04:22:27.375Z,100543.34
2023-05-15T04:27:29.370Z,100541.53
2023-05-15T04:32:32.765Z,100545.72
2023-05-15T04:37:34.796Z,100545.75
2023-05-15T04:42:39.131Z,100535.94
2023-05-15T04:47:43.292Z,100533.50
2023-05-15T04:52:45.666Z,100534.94
2023-05-15T04:57:47.882Z,100528.31
2023-05-15T05:02:51.636Z,100529.88
2023-05-15T05:07:53.820Z,100530.81
2023-05-15T05:12:55.983Z,100513.41
2023-05-15T05:17:59.522Z,100520.25
2023-05-15T05:23:01.684Z,100520.09
2023-05-15T05:28:03.651Z,100511.50
2023-05-15T05:33:06.794Z,100508.66
2023-05-15T05:38:09.373Z,100515.91
2023-05-15T05:43:11.559Z,100510.19
2023-05-15T05:48:15.263Z,100509.50
2023-05-15T05:53:17.046Z,100498.38
2023-05-15T05:58:25.572Z,100496.34
2023-05-15T06:03:30.083Z,100492.81
2023-05-15T06:08:32.129Z,100487.84
2023-05-15T06:13:34.312Z,100478.06
2023-05-15T06:18:37.926Z,100477.03
2023-05-15T06:23:40.369Z,100464.34
2023-05-15T06:28:42.487Z,100450.50
2023-05-15T06:33:45.989Z,100460.50
2023-05-15T06:38:48.297Z,100450.75
2023-05-15T06:43:50.494Z,100456.50
2023-05-15T06:48:54.130Z,100453.72
2023-05-15T06:53:56.462Z,100450.28
2023-05-15T06:58:58.720Z,100437.53
2023-05-15T07:04:02.375Z,100432.66
2023-05-15T07:09:04.589Z,100425.91
2023-05-15T07:14:07.121Z,100424.88
2023-05-15T07:19:10.791Z,100418.66
2023-05-15T07:24:13.570Z,100412.81
2023-05-15T07:29:15.810Z,100405.44
2023-05-15T07:34:18.954Z,100415.34
2023-05-15T07:39:21.313Z,100403.94
2023-05-15T07:44:23.528Z,100398.59
2023-05-15T07:49:26.960Z,100395.63
2023-05-15T07:54:29.000Z,100396.16
2023-05-15T07:59:33.283Z,100398.38
2023-05-15T08:04:37.005Z,100389.13
2023-05-15T08:09:38.775Z,100393.47
2023-05-15T08:14:41.048Z,100385.06
2023-05-15T08:19:44.497Z,100382.47
2023-05-15T08:24:46.805Z,100370.34
2023-05-15T08:29:49.118Z,100368.81
2023-05-15T08:34:52.906Z,100368.91
2023-05-15T08:39:55.208Z,100353.28
2023-05-15T08:44:57.598Z,100349.94
2023-05-15T08:50:07.900Z,100350.97
2023-05-15T08:55:10.756Z,100351.28
2023-05-15T09:00:15.007Z,100348.19
2023-05-15T09:05:18.797Z,100343.50
2023-05-15T09:10:22.286Z,100341.09
2023-05-15T09:15:25.814Z,100335.69
2023-05-15T09:20:31.089Z,100336.94
2023-05-15T09:25:37.562Z,100329.59
2023-05-15T09:30:42.988Z,100327.22
2023-05-15T09:35:46.780Z,100324.72
2023-05-15T09:40:49.164Z,100329.50
2023-05-15T09:45:51.303Z,100313.16
2023-05-15T09:50:55.012Z,100312.97
2023-05-15T09:55:57.215Z,100307.41
2023-05-15T10:00:59.998Z,100310.34
2023-05-15T10:06:03.741Z,100300.91
2023-05-15T10:11:07.252Z,100293.31
2023-05-15T10:16:09.571Z,100290.75
2023-05-15T10:21:16.045Z,100296.69
2023-05-15T10:26:24.149Z,100301.00
2023-05-15T10:31:27.230Z,100299.06
2023-05-15T10:36:31.695Z,100284.38
2023-05-15T10:41:36.756Z,100276.00
2023-05-15T10:46:38.910Z,100274.41
2023-05-15T10:51:42.965Z,100271.50
2023-05-15T10:56:45.271Z,100261.63
2023-05-15T11:01:47.499Z,100255.78
2023-05-15T11:07:11.067Z,100258.06
2023-05-15T11:12:13.593Z,100251.84
2023-05-15T11:17:16.133Z,100243.88
2023-05-15T11:22:22.064Z,100225.28
2023-05-15T11:27:26.017Z,100216.53
2023-05-15T11:32:56.504Z,100215.91
2023-05-15T11:38:02.714Z,100207.06
2023-05-15T11:43:07.450Z,100208.53
2023-05-15T11:48:14.317Z,100204.13
2023-05-15T11:53:19.021Z,100193.44
2023-05-15T11:58:22.650Z,100188.91
2023-05-15T12:03:26.433Z,100196.47
2023-05-15T12:08:34.367Z,100188.63
2023-05-15T12:13:36.373Z,100191.84
2023-05-15T12:18:38.771Z,100205.22
2023-05-15T12:23:42.137Z,100228.31
2023-05-15T12:28:44.265Z,100201.59
2023-05-15T12:33:46.638Z,100200.56
2023-05-15T12:38:50.667Z,100191.00
2023-05-15T12:43:53.288Z,100190.25
2023-05-15T12:48:58.452Z,100176.00
2023-05-15T12:54:01.927Z,100180.38
2023-05-15T12:59:04.734Z,100167.94
2023-05-15T13:04:06.925Z,100169.69
2023-05-15T13:09:10.161Z,100155.09
2023-05-15T13:14:12.586Z,100156.19
2023-05-15T13:19:14.895Z,100152.28
2023-05-15T13:24:18.439Z,100147.69
2023-05-15T13:29:20.162Z,100140.38
2023-05-15T13:34:22.122Z,100135.88
2023-05-15T13:39:25.591Z,100127.19
2023-05-15T13:44:27.977Z,100129.66
2023-05-15T13:49:30.081Z,100130.19
2023-05-15T13:54:33.716Z,100130.81
2023-05-15T13:59:35.546Z,100130.34
2023-05-15T14:04:37.648Z,100127.44
2023-05-15T14:09:40.815Z,100126.44
2023-05-15T14:14:42.649Z,100123.91
2023-05-15T14:19:45.006Z,100124.25
2023-05-15T14:24:48.550Z,100142.25
2023-05-15T14:29:50.384Z,100151.06
2023-05-15T14:34:52.507Z,100170.34
2023-05-15T14:39:55.670Z,100178.28
2023-05-15T14:44:57.853Z,100181.00
2023-05-15T14:49:59.982Z,100183.47
2023-05-15T15:00:10.138Z,100195.97
2023-05-15T15:05:12.117Z,100189.56
2023-05-15T15:10:15.512Z,100181.09
2023-05-15T15:15:17.819Z,100189.25
2023-05-15T15:20:20.947Z,100186.25
2023-05-15T15:25:24.840Z,100179.41
2023-05-15T15:30:27.402Z,100195.31
2023-05-15T15:35:30.051Z,100208.00
2023-05-15T15:40:35.324Z,100209.66
2023-05-15T15:45:37.782Z,100218.97
2023-05-15T15:50:39.825Z,100221.38
2023-05-15T15:55:44.549Z,100231.34
2023-05-15T16:00:48.058Z,100238.00
2023-05-15T16:05:50.205Z,100245.50
2023-05-15T16:10:54.158Z,100247.53
2023-05-15T16:15:56.230Z,100238.22
2023-05-15T16:20:58.472Z,100229.38
2023-05-15T16:26:01.950Z,100221.91
2023-05-15T16:31:04.799Z,100225.44
2023-05-15T16:36:07.302Z,100240.81
2023-05-15T16:41:11.003Z,100259.66
2023-05-15T16:46:13.800Z,100273.94
2023-05-15T16:51:16.416Z,100281.09
2023-05-15T16:56:19.985Z,100284.22
2023-05-15T17:01:22.167Z,100274.75
2023-05-15T17:06:24.366Z,100284.56
2023-05-15T17:11:27.882Z,100279.47
2023-05-15T17:16:30.004Z,100269.78
2023-05-15T17:21:32.340Z,100258.41
2023-05-15T17:26:35.776Z,100230.72
2023-05-15T17:31:39.050Z,100224.84
2023-05-15T17:36:41.280Z,100220.78
2023-05-15T17:41:44.798Z,100227.28
2023-05-15T17:46:47.179Z,100223.28
2023-05-15T17:51:48.970Z,100238.56
2023-05-15T17:56:52.473Z,100241.19
2023-05-15T18:01:54.997Z,100234.16
2023-05-15T18:06:57.171Z,100231.59
2023-05-15T18:12:00.631Z,100228.16
2023-05-15T18:17:02.954Z,100233.41
2023-05-15T18:22:05.769Z,100248.38
2023-05-15T18:27:09.337Z,100254.69
2023-05-15T18:32:11.530Z,100256.19
2023-05-15T18:37:13.641Z,100244.31
2023-05-15T18:42:17.621Z,100264.81
2023-05-15T18:47:21.070Z,100280.03
2023-05-15T18:52:23.316Z,100290.13
2023-05-15T18:57:26.434Z,100289.44
2023-05-15T19:02:28.299Z,100295.78
2023-05-15T19:07:30.165Z,100301.41
2023-05-15T19:12:33.750Z,100309.47
2023-05-15T19:17:38.006Z,100306.84
2023-05-15T19:22:40.491Z,100306.97
2023-05-15T19:27:44.597Z,100317.94
2023-05-15T19:32:46.417Z,100300.88
2023-05-15T19:37:48.712Z,100309.31
2023-05-15T19:42:52.275Z,100309.50
2023-05-15T19:47:55.028Z,100299.81
2023-05-15T19:52:56.884Z,100305.41
2023-05-15T19:58:00.387Z,100305.44
2023-05-15T20:03:02.804Z,100306.59
2023-05-15T20:08:05.346Z,100313.78
2023-05-15T20:13:09.969Z,100314.59
2023-05-15T20:18:12.273Z,100327.94
2023-05-15T20:23:14.350Z,100329.41
2023-05-15T20:28:17.826Z,100337.16
2023-05-15T20:33:20.118Z,100343.84
2023-05-15T20:38:22.824Z,100346.41
2023-05-15T20:43:26.060Z,100345.88
2023-05-15T20:48:28.061Z,100351.50
2023-05-15T20:53:30.448Z,100346.66
2023-05-15T20:58:33.588Z,100344.22
2023-05-15T21:03:35.807Z,100341.00
2023-05-15T21:08:37.970Z,100343.97
2023-05-15T21:13:41.131Z,100342.16
2023-05-15T21:18:43.376Z,100341.25
2023-05-15T21:23:45.530Z,100336.03
2023-05-15T21:28:48.883Z,100330.69
2023-05-15T21:33:51.000Z,100338.63
2023-05-15T21:38:52.942Z,100351.91
2023-05-15T21:43:56.342Z,100352.09
2023-05-15T21:48:58.904Z,100360.84
2023-05-15T21:54:01.042Z,100365.13
2023-05-15T21:59:04.499Z,100370.88
2023-05-15T22:04:06.709Z,100370.81
2023-05-15T22:09:08.763Z,100370.56
2023-05-15T22:14:12.257Z,100367.31
2023-05-15T22:19:29.040Z,100372.28
2023-05-15T22:24:35.094Z,100371.50
2023-05-15T22:29:38.128Z,100375.66
2023-05-15T22:34:40.232Z,100372.81
2023-05-15T22:39:42.537Z,100369.31
2023-05-15T22:44:46.735Z,100378.13
2023-05-15T22:49:49.146Z,100387.31
2023-05-15T22:54:51.258Z,100389.34
2023-05-15T22:59:54.674Z,100393.88
2023-05-15T23:04:56.878Z,100400.25
2023-05-15T23:09:59.404Z,100403.22
2023-05-15T23:15:02.523Z,100394.56
2023-05-15T23:20:05.908Z,100404.69
2023-05-15T23:25:08.801Z,100404.81
2023-05-15T23:30:13.009Z,100407.47
2023-05-15T23:35:15.075Z,100407.84
2023-05-15T23:40:17.812Z,100407.06
2023-05-15T23:45:21.415Z,100413.16
2023-05-15T23:50:23.787Z,100429.22
2023-05-15T23:55:25.660Z,100425.03
